GOBD

Blaise Diagne International Airport

Dakar, Senegal
TAF GOBD 182330Z 1900/2006 01017KT 7000 NSC BECMG 1904/1906 4500
Issued Valid From Valid To
Jan-18 @ 23:30 UTC
(3 hours ago)
Jan-19 @ 00:00 UTC
(2 hours ago)
Jan-20 @ 06:00 UTC
(-1 days ago)
Jan-19 @ 00:00 to Jan-19 @ 04:00
TAF GOBD 182330Z 1900/2006 01017KT 7000 NSC
Wind Visibility Clouds
10° at 17 knots 7,001 meters
  • No significant clouds
Becoming Jan-19 @ 04:00 to Jan-20 @ 06:00
BECMG 1904/1906 4500
Wind Visibility Clouds
10° at 17 knots 4,506 meters
  • No significant clouds
TAF GOBD 182330Z 1900/2006 01017KT 7000 NSC BECMG 1904/1906 4500
Issued Jan-18 @ 23:30 UTC
(3 hours ago)
Valid From Jan-19 @ 00:00 UTC
(2 hours ago)
Valid To Jan-20 @ 06:00 UTC
(-1 days ago)
Jan-19 @ 00:00 - Jan-19 @ 04:00
Wind Visibility
10° at 17 knots 7,001 meters
Clouds
  • No significant clouds
Becoming Jan-19 @ 04:00 - Jan-20 @ 06:00
Wind Visibility
10° at 17 knots 4,506 meters
Clouds
  • No significant clouds